createdAt,value
2023-05-05T00:01:33.108Z,100.00
2023-05-05T00:04:00.861Z,100.00
2023-05-05T00:06:29.362Z,100.00
2023-05-05T00:08:58.369Z,100.00
2023-05-05T00:11:26.328Z,100.00
2023-05-05T00:13:53.933Z,100.00
2023-05-05T00:16:23.199Z,100.00
2023-05-05T00:18:50.913Z,100.00
2023-05-05T00:21:18.507Z,100.00
2023-05-05T00:23:46.458Z,100.00
2023-05-05T00:26:15.722Z,100.00
2023-05-05T00:28:43.680Z,100.00
2023-05-05T00:31:11.401Z,100.00
2023-05-05T00:33:39.000Z,100.00
2023-05-05T00:36:07.124Z,100.00
2023-05-05T00:38:34.711Z,100.00
2023-05-05T00:41:02.354Z,100.00
2023-05-05T00:43:31.346Z,100.00
2023-05-05T00:46:02.981Z,100.00
2023-05-05T00:48:31.629Z,100.00
2023-05-05T00:50:59.776Z,100.00
2023-05-05T00:53:28.230Z,100.00
2023-05-05T00:55:55.963Z,100.00
2023-05-05T00:58:23.831Z,100.00
2023-05-05T01:00:52.898Z,100.00
2023-05-05T01:03:20.718Z,100.00
2023-05-05T01:05:57.605Z,100.00
2023-05-05T01:08:35.694Z,100.00
2023-05-05T01:11:08.826Z,100.00
2023-05-05T01:13:49.464Z,100.00
2023-05-05T01:16:21.424Z,100.00
2023-05-05T01:18:57.475Z,100.00
2023-05-05T01:21:30.171Z,100.00
2023-05-05T01:24:40.589Z,100.00
2023-05-05T01:27:28.996Z,100.00
2023-05-05T01:30:09.621Z,100.00
2023-05-05T01:32:43.041Z,100.00
2023-05-05T01:35:16.207Z,100.00
2023-05-05T01:37:48.846Z,100.00
2023-05-05T01:40:20.756Z,100.00
2023-05-05T01:42:50.014Z,100.00
2023-05-05T01:45:21.518Z,100.00
2023-05-05T01:47:50.833Z,100.00
2023-05-05T01:50:19.708Z,100.00
2023-05-05T01:52:48.440Z,100.00
2023-05-05T01:55:19.471Z,100.00
2023-05-05T01:57:49.922Z,100.00
2023-05-05T02:00:19.638Z,100.00
2023-05-05T02:02:50.898Z,100.00
2023-05-05T02:05:22.703Z,100.00
2023-05-05T02:07:51.890Z,100.00
2023-05-05T02:10:19.767Z,100.00
2023-05-05T02:12:48.550Z,100.00
2023-05-05T02:15:17.500Z,100.00
2023-05-05T02:17:47.341Z,100.00
2023-05-05T02:20:19.300Z,100.00
2023-05-05T02:22:47.063Z,100.00
2023-05-05T02:25:14.917Z,100.00
2023-05-05T02:27:45.352Z,100.00
2023-05-05T02:30:16.898Z,100.00
2023-05-05T02:32:49.762Z,100.00
2023-05-05T02:35:23.422Z,100.00
2023-05-05T02:37:56.659Z,100.00
2023-05-05T02:40:27.355Z,100.00
2023-05-05T02:42:58.243Z,100.00
2023-05-05T02:45:27.791Z,100.00
2023-05-05T02:47:55.779Z,100.00
2023-05-05T02:50:24.802Z,100.00
2023-05-05T02:52:52.466Z,100.00
2023-05-05T02:55:20.498Z,100.00
2023-05-05T02:57:52.257Z,100.00
2023-05-05T03:00:25.289Z,100.00
2023-05-05T03:03:02.083Z,100.00
2023-05-05T03:05:38.640Z,100.00
2023-05-05T03:08:11.993Z,100.00
2023-05-05T03:10:47.301Z,100.00
2023-05-05T03:13:18.157Z,100.00
2023-05-05T03:15:49.268Z,100.00
2023-05-05T03:18:19.266Z,100.00
2023-05-05T03:20:49.297Z,100.00
2023-05-05T03:23:18.303Z,100.00
2023-05-05T03:25:46.855Z,100.00
2023-05-05T03:28:15.062Z,100.00
2023-05-05T03:30:43.446Z,100.00
2023-05-05T03:33:11.715Z,100.00
2023-05-05T03:35:39.496Z,100.00
2023-05-05T03:38:08.435Z,100.00
2023-05-05T03:40:43.505Z,100.00
2023-05-05T03:43:12.112Z,100.00
2023-05-05T03:45:39.852Z,100.00
2023-05-05T03:48:09.585Z,100.00
2023-05-05T03:50:37.640Z,100.00
2023-05-05T03:53:05.231Z,100.00
2023-05-05T03:55:34.282Z,100.00
2023-05-05T03:58:01.905Z,100.00
2023-05-05T04:00:29.691Z,100.00
2023-05-05T04:02:57.340Z,100.00
2023-05-05T04:05:25.364Z,100.00
2023-05-05T04:07:53.095Z,100.00
2023-05-05T04:10:21.428Z,100.00
2023-05-05T04:12:50.623Z,100.00
2023-05-05T04:15:18.301Z,100.00
2023-05-05T04:17:45.952Z,100.00
2023-05-05T04:20:13.555Z,100.00
2023-05-05T04:22:41.240Z,100.00
2023-05-05T04:25:09.278Z,100.00
2023-05-05T04:27:36.922Z,100.00
2023-05-05T04:30:07.198Z,100.00
2023-05-05T04:32:35.023Z,100.00
2023-05-05T04:35:02.676Z,100.00
2023-05-05T04:37:30.301Z,100.00
2023-05-05T04:39:57.980Z,100.00
2023-05-05T04:42:25.817Z,100.00
2023-05-05T04:44:53.981Z,100.00
2023-05-05T04:47:22.934Z,100.00
2023-05-05T04:49:50.620Z,100.00
2023-05-05T04:52:18.226Z,100.00
2023-05-05T04:54:45.835Z,100.00
2023-05-05T04:57:13.517Z,100.00
2023-05-05T04:59:41.173Z,100.00
2023-05-05T05:02:08.828Z,100.00
2023-05-05T05:04:37.871Z,100.00
2023-05-05T05:07:05.512Z,100.00
2023-05-05T05:09:33.202Z,100.00
2023-05-05T05:12:02.837Z,100.00
2023-05-05T05:14:30.590Z,100.00
2023-05-05T05:16:58.560Z,100.00
2023-05-05T05:19:26.347Z,100.00
2023-05-05T05:21:55.349Z,100.00
2023-05-05T05:24:22.960Z,100.00
2023-05-05T05:26:50.640Z,100.00
2023-05-05T05:29:18.422Z,100.00
2023-05-05T05:31:46.061Z,100.00
2023-05-05T05:34:13.693Z,100.00
2023-05-05T05:36:41.393Z,100.00
2023-05-05T05:39:10.364Z,100.00
2023-05-05T05:41:38.002Z,100.00
2023-05-05T05:44:05.931Z,100.00
2023-05-05T05:46:33.739Z,100.00
2023-05-05T05:49:01.324Z,100.00
2023-05-05T05:51:29.000Z,100.00
2023-05-05T05:53:58.709Z,100.00
2023-05-05T05:56:28.196Z,100.00
2023-05-05T05:58:55.987Z,100.00
2023-05-05T06:01:23.649Z,100.00
2023-05-05T06:03:51.627Z,100.00
2023-05-05T06:06:19.257Z,100.00
2023-05-05T06:08:46.889Z,100.00
2023-05-05T06:11:14.530Z,100.00
2023-05-05T06:13:43.901Z,100.00
2023-05-05T06:16:11.921Z,100.00
2023-05-05T06:18:39.536Z,100.00
2023-05-05T06:21:07.248Z,100.00
2023-05-05T06:23:34.842Z,100.00
2023-05-05T06:26:02.466Z,100.00
2023-05-05T06:28:30.090Z,100.00
2023-05-05T06:30:59.266Z,100.00
2023-05-05T06:33:26.962Z,100.00
2023-05-05T06:35:54.600Z,100.00
2023-05-05T06:38:22.283Z,100.00
2023-05-05T06:40:50.539Z,100.00
2023-05-05T06:43:18.604Z,100.00
2023-05-05T06:45:46.319Z,100.00
2023-05-05T06:48:15.385Z,100.00
2023-05-05T06:50:43.172Z,100.00
2023-05-05T06:53:10.883Z,100.00
2023-05-05T06:55:38.495Z,100.00
2023-05-05T06:58:06.507Z,100.00
2023-05-05T07:00:34.151Z,100.00
2023-05-05T07:03:02.046Z,100.00
2023-05-05T07:05:31.324Z,100.00
2023-05-05T07:07:59.238Z,100.00
2023-05-05T07:10:27.277Z,100.00
2023-05-05T07:12:55.756Z,100.00
2023-05-05T07:15:27.336Z,100.00
2023-05-05T07:17:56.487Z,100.00
2023-05-05T07:20:24.594Z,99.40
2023-05-05T07:22:53.659Z,93.27
2023-05-05T07:25:21.262Z,93.82
2023-05-05T07:27:48.940Z,98.88
2023-05-05T07:30:18.508Z,100.00
2023-05-05T07:32:46.956Z,100.00
2023-05-05T07:35:15.409Z,100.00
2023-05-05T07:37:43.020Z,100.00
2023-05-05T07:40:12.899Z,100.00
2023-05-05T07:42:40.737Z,100.00
2023-05-05T07:45:09.131Z,100.00
2023-05-05T07:47:36.842Z,98.53
2023-05-05T07:50:04.864Z,100.00
2023-05-05T07:52:44.931Z,100.00
2023-05-05T07:55:17.161Z,96.87
2023-05-05T07:57:44.833Z,96.13
2023-05-05T08:00:14.246Z,99.91
2023-05-05T08:02:42.253Z,100.00
2023-05-05T08:05:10.570Z,98.93
2023-05-05T08:07:41.172Z,100.00
2023-05-05T08:10:11.255Z,97.12
2023-05-05T08:12:40.851Z,95.04
2023-05-05T08:15:09.356Z,93.39
2023-05-05T08:17:48.575Z,96.27
2023-05-05T08:20:16.829Z,98.28
2023-05-05T08:22:44.492Z,99.26
2023-05-05T08:25:13.015Z,100.00
2023-05-05T08:27:43.232Z,100.00
2023-05-05T08:30:11.819Z,100.00
2023-05-05T08:32:39.768Z,100.00
2023-05-05T08:35:08.270Z,100.00
2023-05-05T08:37:36.222Z,100.00
2023-05-05T08:40:03.865Z,100.00
2023-05-05T08:42:36.988Z,100.00
2023-05-05T08:45:09.481Z,100.00
2023-05-05T08:47:38.496Z,100.00
2023-05-05T08:50:07.087Z,100.00
2023-05-05T08:52:45.870Z,100.00
2023-05-05T08:55:16.780Z,99.83
2023-05-05T08:57:51.537Z,99.59
2023-05-05T09:00:21.730Z,98.13
2023-05-05T09:02:49.757Z,100.00
2023-05-05T09:05:18.030Z,100.00
2023-05-05T09:07:46.715Z,100.00
2023-05-05T09:10:14.483Z,99.67
2023-05-05T09:12:42.364Z,99.30
2023-05-05T09:15:11.617Z,100.00
2023-05-05T09:17:41.135Z,100.00
2023-05-05T09:20:10.523Z,100.00
2023-05-05T09:22:39.446Z,100.00
2023-05-05T09:25:09.583Z,100.00
2023-05-05T09:27:38.238Z,100.00
2023-05-05T09:30:07.141Z,100.00
2023-05-05T09:32:51.753Z,100.00
2023-05-05T09:35:23.174Z,100.00
2023-05-05T09:37:50.992Z,100.00
2023-05-05T09:40:20.706Z,100.00
2023-05-05T09:42:49.165Z,100.00
2023-05-05T09:45:27.317Z,100.00
2023-05-05T09:47:59.651Z,99.50
2023-05-05T09:50:30.437Z,99.30
2023-05-05T09:52:59.993Z,99.76
2023-05-05T09:55:27.694Z,99.09
2023-05-05T09:57:55.719Z,97.57
2023-05-05T10:00:38.266Z,96.55
2023-05-05T10:03:07.617Z,94.46
2023-05-05T10:05:48.297Z,97.68
2023-05-05T10:08:16.125Z,97.72
2023-05-05T10:10:48.286Z,99.37
2023-05-05T10:13:19.087Z,96.46
2023-05-05T10:15:49.062Z,92.35
2023-05-05T10:18:21.425Z,92.09
2023-05-05T10:20:52.903Z,95.78
2023-05-05T10:23:23.650Z,98.56
2023-05-05T10:25:59.283Z,99.03
2023-05-05T10:28:32.851Z,100.00
2023-05-05T10:31:05.740Z,99.41
2023-05-05T10:33:48.299Z,100.00
2023-05-05T10:36:17.228Z,100.00
2023-05-05T10:38:47.298Z,100.00
2023-05-05T10:41:16.753Z,100.00
2023-05-05T10:43:44.621Z,99.67
2023-05-05T10:46:12.351Z,98.58
2023-05-05T10:48:47.979Z,96.93
2023-05-05T10:51:39.216Z,99.36
2023-05-05T10:54:14.260Z,98.63
2023-05-05T10:56:43.099Z,98.54
2023-05-05T10:59:47.632Z,98.14
2023-05-05T11:02:28.921Z,98.93
2023-05-05T11:05:18.406Z,95.90
2023-05-05T11:07:47.057Z,93.78
2023-05-05T11:10:16.578Z,91.81
2023-05-05T11:13:18.968Z,90.03
2023-05-05T11:15:46.700Z,88.88
2023-05-05T11:18:30.625Z,84.56
2023-05-05T11:21:16.706Z,87.11
2023-05-05T11:23:49.653Z,87.85
2023-05-05T11:26:18.198Z,89.92
2023-05-05T11:29:03.187Z,90.62
2023-05-05T11:31:31.837Z,92.98
2023-05-05T11:34:26.088Z,95.68
2023-05-05T11:36:58.931Z,94.28
2023-05-05T11:39:37.026Z,93.10
2023-05-05T11:42:22.525Z,97.54
2023-05-05T11:44:51.067Z,100.00
2023-05-05T11:47:32.760Z,100.00
2023-05-05T11:50:17.913Z,100.00
2023-05-05T11:52:48.280Z,100.00
2023-05-05T11:55:21.980Z,100.00
2023-05-05T11:57:49.681Z,100.00
2023-05-05T12:00:18.042Z,100.00
2023-05-05T12:02:45.922Z,100.00
2023-05-05T12:05:20.798Z,100.00
2023-05-05T12:07:56.786Z,100.00
2023-05-05T12:10:24.870Z,100.00
2023-05-05T12:12:55.660Z,100.00
2023-05-05T12:15:30.682Z,100.00
2023-05-05T12:18:00.115Z,100.00
2023-05-05T12:20:36.426Z,100.00
2023-05-05T12:23:06.060Z,100.00
2023-05-05T12:25:38.980Z,100.00
2023-05-05T12:28:08.195Z,100.00
2023-05-05T12:30:36.286Z,100.00
2023-05-05T12:33:04.742Z,100.00
2023-05-05T12:35:33.202Z,100.00
2023-05-05T12:38:00.910Z,100.00
2023-05-05T12:40:49.757Z,100.00
2023-05-05T12:43:31.482Z,100.00
2023-05-05T12:46:17.462Z,100.00
2023-05-05T12:48:47.871Z,100.00
2023-05-05T12:51:20.528Z,100.00
2023-05-05T12:53:50.484Z,100.00
2023-05-05T12:56:33.324Z,100.00
2023-05-05T12:59:01.380Z,100.00
2023-05-05T13:01:29.482Z,100.00
2023-05-05T13:04:08.310Z,100.00
2023-05-05T13:06:37.632Z,100.00
2023-05-05T13:09:07.005Z,100.00
2023-05-05T13:11:40.020Z,100.00
2023-05-05T13:14:08.404Z,100.00
2023-05-05T13:16:36.119Z,100.00
2023-05-05T13:19:03.869Z,100.00
2023-05-05T13:21:31.552Z,100.00
2023-05-05T13:24:18.375Z,100.00
2023-05-05T13:26:48.731Z,100.00
2023-05-05T13:29:17.326Z,100.00
2023-05-05T13:31:45.806Z,100.00
2023-05-05T13:34:13.598Z,100.00
2023-05-05T13:36:41.159Z,100.00
2023-05-05T13:39:08.954Z,100.00
2023-05-05T13:41:36.548Z,100.00
2023-05-05T13:44:05.743Z,100.00
2023-05-05T13:46:33.428Z,100.00
2023-05-05T13:49:01.071Z,100.00
2023-05-05T13:51:29.460Z,100.00
2023-05-05T13:53:57.056Z,100.00
2023-05-05T13:56:26.272Z,100.00
2023-05-05T13:58:54.110Z,100.00
2023-05-05T14:01:23.160Z,100.00
2023-05-05T14:03:50.892Z,100.00
2023-05-05T14:06:18.593Z,100.00
2023-05-05T14:08:46.312Z,100.00
2023-05-05T14:11:17.025Z,100.00
2023-05-05T14:13:46.431Z,100.00
2023-05-05T14:16:14.330Z,100.00
2023-05-05T14:18:43.426Z,100.00
2023-05-05T14:21:11.231Z,100.00
2023-05-05T14:23:38.899Z,100.00
2023-05-05T14:26:06.553Z,100.00
2023-05-05T14:28:34.190Z,100.00
2023-05-05T14:31:01.778Z,100.00
2023-05-05T14:33:29.492Z,100.00
2023-05-05T14:35:58.517Z,100.00
2023-05-05T14:38:26.159Z,100.00
2023-05-05T14:40:54.189Z,100.00
2023-05-05T14:43:21.904Z,100.00
2023-05-05T14:45:50.618Z,100.00
2023-05-05T14:48:21.642Z,100.00
2023-05-05T14:50:49.856Z,100.00
2023-05-05T14:53:19.919Z,100.00
2023-05-05T14:55:47.714Z,100.00
2023-05-05T14:58:15.417Z,100.00
2023-05-05T15:00:43.033Z,100.00
2023-05-05T15:03:10.763Z,100.00
2023-05-05T15:05:38.478Z,100.00
2023-05-05T15:08:06.507Z,100.00
2023-05-05T15:10:35.486Z,100.00
2023-05-05T15:13:03.208Z,100.00
2023-05-05T15:15:30.952Z,100.00
2023-05-05T15:17:58.630Z,100.00
2023-05-05T15:20:26.340Z,100.00
2023-05-05T15:22:54.861Z,100.00
2023-05-05T15:25:22.630Z,100.00
2023-05-05T15:27:51.618Z,100.00
2023-05-05T15:30:19.709Z,100.00
2023-05-05T15:32:47.825Z,100.00
2023-05-05T15:35:15.576Z,100.00
2023-05-05T15:37:43.411Z,100.00
2023-05-05T15:40:11.811Z,100.00
2023-05-05T15:42:39.795Z,100.00
2023-05-05T15:45:12.146Z,100.00
2023-05-05T15:47:39.774Z,100.00
2023-05-05T15:50:08.474Z,100.00
2023-05-05T15:52:36.085Z,100.00
2023-05-05T15:55:03.806Z,100.00
2023-05-05T15:57:31.499Z,100.00
2023-05-05T15:59:59.083Z,100.00
2023-05-05T16:02:28.207Z,100.00
2023-05-05T16:04:55.863Z,100.00
2023-05-05T16:07:23.572Z,100.00
2023-05-05T16:09:51.221Z,100.00
2023-05-05T16:12:20.733Z,100.00
2023-05-05T16:14:48.322Z,100.00
2023-05-05T16:17:15.909Z,100.00
2023-05-05T16:19:44.852Z,100.00
2023-05-05T16:22:12.459Z,100.00
2023-05-05T16:24:40.719Z,100.00
2023-05-05T16:27:09.079Z,100.00
2023-05-05T16:29:36.658Z,100.00
2023-05-05T16:32:04.703Z,100.00
2023-05-05T16:34:32.415Z,100.00
2023-05-05T16:37:01.335Z,100.00
2023-05-05T16:39:28.937Z,100.00
2023-05-05T16:41:56.553Z,100.00
2023-05-05T16:44:24.214Z,100.00
2023-05-05T16:46:51.907Z,100.00
2023-05-05T16:49:19.480Z,100.00
2023-05-05T16:51:47.031Z,100.00
2023-05-05T16:54:15.989Z,100.00
2023-05-05T16:56:43.627Z,100.00
2023-05-05T16:59:11.392Z,100.00
2023-05-05T17:01:39.001Z,100.00
2023-05-05T17:04:06.672Z,100.00
2023-05-05T17:06:34.259Z,100.00
2023-05-05T17:09:01.910Z,100.00
2023-05-05T17:11:30.950Z,100.00
2023-05-05T17:13:58.756Z,100.00
2023-05-05T17:16:26.592Z,100.00
2023-05-05T17:18:54.739Z,100.00
2023-05-05T17:21:22.354Z,100.00
2023-05-05T17:23:50.267Z,100.00
2023-05-05T17:26:17.991Z,100.00
2023-05-05T17:28:47.007Z,100.00
2023-05-05T17:31:14.781Z,100.00
2023-05-05T17:33:42.542Z,100.00
2023-05-05T17:36:11.316Z,100.00
2023-05-05T17:38:38.967Z,100.00
2023-05-05T17:41:06.547Z,100.00
2023-05-05T17:43:34.214Z,100.00
2023-05-05T17:46:03.287Z,100.00
2023-05-05T17:48:31.034Z,100.00
2023-05-05T17:50:58.672Z,100.00
2023-05-05T17:53:26.366Z,100.00
2023-05-05T17:55:54.432Z,100.00
2023-05-05T17:58:22.016Z,100.00
2023-05-05T18:00:49.644Z,100.00
2023-05-05T18:03:18.780Z,100.00
2023-05-05T18:05:46.676Z,100.00
2023-05-05T18:08:14.293Z,100.00
2023-05-05T18:10:41.940Z,100.00
2023-05-05T18:13:09.624Z,100.00
2023-05-05T18:15:37.354Z,100.00
2023-05-05T18:18:06.559Z,100.00
2023-05-05T18:20:35.589Z,100.00
2023-05-05T18:23:03.191Z,100.00
2023-05-05T18:25:30.940Z,100.00
2023-05-05T18:27:58.585Z,100.00
2023-05-05T18:30:26.399Z,100.00
2023-05-05T18:32:54.022Z,100.00
2023-05-05T18:35:22.390Z,100.00
2023-05-05T18:37:52.292Z,100.00
2023-05-05T18:40:20.111Z,100.00
2023-05-05T18:42:47.890Z,100.00
2023-05-05T18:45:15.588Z,100.00
2023-05-05T18:47:43.254Z,100.00
2023-05-05T18:50:11.045Z,100.00
2023-05-05T18:52:38.729Z,100.00
2023-05-05T18:55:08.411Z,100.00
2023-05-05T18:57:36.218Z,100.00
2023-05-05T19:00:04.211Z,100.00
2023-05-05T19:02:31.900Z,100.00
2023-05-05T19:04:59.629Z,100.00
2023-05-05T19:07:35.097Z,100.00
2023-05-05T19:10:05.122Z,100.00
2023-05-05T19:12:34.082Z,100.00
2023-05-05T19:15:01.758Z,100.00
2023-05-05T19:17:29.440Z,100.00
2023-05-05T19:19:57.024Z,100.00
2023-05-05T19:22:24.626Z,100.00
2023-05-05T19:24:52.238Z,100.00
2023-05-05T19:27:19.906Z,100.00
2023-05-05T19:29:52.045Z,100.00
2023-05-05T19:32:20.164Z,100.00
2023-05-05T19:34:48.050Z,100.00
2023-05-05T19:37:15.678Z,100.00
2023-05-05T19:39:45.670Z,100.00
2023-05-05T19:42:13.345Z,100.00
2023-05-05T19:44:41.269Z,100.00
2023-05-05T19:47:11.130Z,100.00
2023-05-05T19:49:38.975Z,100.00
2023-05-05T19:52:06.707Z,100.00
2023-05-05T19:54:34.377Z,100.00
2023-05-05T19:57:02.255Z,100.00
2023-05-05T19:59:30.548Z,100.00
2023-05-05T20:01:58.150Z,100.00
2023-05-05T20:04:27.239Z,100.00
2023-05-05T20:06:56.634Z,100.00
2023-05-05T20:09:24.263Z,100.00
2023-05-05T20:11:51.898Z,100.00
2023-05-05T20:14:19.565Z,100.00
2023-05-05T20:16:47.885Z,100.00
2023-05-05T20:19:15.495Z,100.00
2023-05-05T20:21:44.421Z,100.00
2023-05-05T20:24:12.094Z,100.00
2023-05-05T20:26:39.700Z,100.00
2023-05-05T20:29:07.318Z,100.00
2023-05-05T20:31:35.748Z,100.00
2023-05-05T20:34:03.355Z,100.00
2023-05-05T20:36:30.952Z,100.00
2023-05-05T20:38:59.899Z,100.00
2023-05-05T20:41:27.516Z,100.00
2023-05-05T20:43:55.140Z,100.00
2023-05-05T20:46:22.776Z,100.00
2023-05-05T20:48:50.526Z,100.00
2023-05-05T20:51:18.182Z,100.00
2023-05-05T20:53:46.068Z,100.00
2023-05-05T20:56:15.034Z,100.00
2023-05-05T20:58:42.817Z,100.00
2023-05-05T21:01:10.619Z,100.00
2023-05-05T21:03:38.227Z,100.00
2023-05-05T21:06:06.127Z,100.00
2023-05-05T21:08:33.743Z,100.00
2023-05-05T21:11:01.503Z,100.00
2023-05-05T21:13:30.476Z,100.00
2023-05-05T21:15:58.277Z,100.00
2023-05-05T21:18:27.542Z,100.00
2023-05-05T21:20:55.347Z,100.00
2023-05-05T21:23:23.225Z,100.00
2023-05-05T21:25:50.857Z,100.00
2023-05-05T21:28:18.481Z,100.00
2023-05-05T21:31:10.212Z,100.00
2023-05-05T21:33:39.177Z,100.00
2023-05-05T21:36:07.194Z,100.00
2023-05-05T21:38:34.967Z,100.00
2023-05-05T21:41:03.673Z,100.00
2023-05-05T21:43:31.264Z,100.00
2023-05-05T21:46:00.781Z,100.00
2023-05-05T21:48:28.460Z,100.00
2023-05-05T21:50:56.176Z,100.00
2023-05-05T21:53:23.998Z,100.00
2023-05-05T21:55:51.698Z,100.00
2023-05-05T21:58:19.344Z,100.00
2023-05-05T22:00:50.192Z,100.00
2023-05-05T22:03:19.248Z,100.00
2023-05-05T22:05:47.071Z,100.00
2023-05-05T22:08:14.676Z,100.00
2023-05-05T22:10:42.309Z,100.00
2023-05-05T22:13:10.930Z,100.00
2023-05-05T22:15:46.652Z,100.00
2023-05-05T22:18:15.334Z,100.00
2023-05-05T22:20:44.493Z,100.00
2023-05-05T22:23:13.891Z,100.00
2023-05-05T22:25:41.566Z,100.00
2023-05-05T22:28:09.164Z,100.00
2023-05-05T22:30:36.970Z,100.00
2023-05-05T22:33:04.964Z,100.00
2023-05-05T22:35:32.640Z,100.00
2023-05-05T22:38:01.731Z,100.00
2023-05-05T22:40:29.414Z,100.00
2023-05-05T22:42:57.062Z,100.00
2023-05-05T22:45:24.691Z,100.00
2023-05-05T22:47:52.503Z,100.00
2023-05-05T22:50:20.321Z,100.00
2023-05-05T22:52:48.034Z,100.00
2023-05-05T22:55:17.500Z,100.00
2023-05-05T22:57:45.113Z,100.00
2023-05-05T23:00:13.111Z,100.00
2023-05-05T23:02:41.533Z,100.00
2023-05-05T23:05:10.222Z,100.00
2023-05-05T23:07:38.470Z,100.00
2023-05-05T23:10:07.042Z,100.00
2023-05-05T23:12:36.067Z,100.00
2023-05-05T23:15:05.534Z,100.00
2023-05-05T23:17:33.158Z,100.00
2023-05-05T23:20:02.342Z,100.00
2023-05-05T23:22:29.911Z,100.00
2023-05-05T23:24:57.561Z,100.00
2023-05-05T23:27:25.303Z,100.00
2023-05-05T23:29:54.246Z,100.00
2023-05-05T23:32:21.855Z,100.00
2023-05-05T23:34:49.479Z,100.00
2023-05-05T23:37:17.044Z,100.00
2023-05-05T23:39:44.623Z,100.00
2023-05-05T23:42:12.200Z,100.00
2023-05-05T23:44:39.785Z,100.00
2023-05-05T23:47:08.796Z,100.00
2023-05-05T23:49:37.134Z,100.00
2023-05-05T23:52:05.001Z,100.00
2023-05-05T23:54:32.600Z,100.00
2023-05-05T23:57:00.569Z,100.00
2023-05-05T23:59:28.189Z,100.00
